ADDS METAR Data INFO
IDs: Format: Raw Decoded Include TAF

Data at: 0400 UTC 11 Dec 2017

KGNB 110350Z AUTO 00000KT 10SM CLR M10/M14 A3056 RMK AO2 T10981140
KGNB 110330Z AUTO 00000KT 10SM CLR M09/M14 A3057 RMK AO2 T10891142
KGNB 110310Z AUTO 00000KT 10SM CLR M08/M13 A3057 RMK AO2 T10851135
KGNB 110250Z AUTO 00000KT 10SM CLR M08/M12 A3057 RMK AO2 T10761125
KGNB 110230Z AUTO 00000KT 10SM CLR M08/M13 A3056 RMK AO2 T10761127
KGNB 110210Z AUTO 00000KT 10SM CLR M06/M12 A3056 RMK AO2 T10651120
KGNB 110150Z AUTO 02003KT 10SM CLR M07/M12 A3055 RMK AO2 T10751120
KGNB 110130Z AUTO 05003KT 10SM CLR M07/M13 A3055 RMK AO2 T10721126
KGNB 110110Z AUTO 00000KT 10SM CLR M05/M11 A3056 RMK AO2 T10461115
KGNB 110050Z AUTO 00000KT 10SM CLR M05/M12 A3056 RMK AO2 T10491122
KGNB 110030Z AUTO 00000KT 10SM CLR M04/M12 A3055 RMK AO2 T10431116
KGNB 102350Z AUTO 25003KT 10SM CLR M02/M11 A3054 RMK AO2 T10191111 10021 21085
KGNB 102330Z AUTO 00000KT 10SM CLR 01/M12 A3054 RMK AO2 T00051123
KGNB 102310Z AUTO 00000KT 10SM CLR 02/M13 A3054 RMK AO2 T00161127
KGNB 102250Z AUTO 00000KT 10SM CLR 02/M13 A3054 RMK AO2 T00211135
KGNB 102230Z AUTO 00000KT 10SM CLR 02/M12 A3055 RMK AO2 T00151122
KGNB 102210Z AUTO 00000KT 10SM CLR 02/M13 A3055 RMK AO2 T00181129
KGNB 102150Z AUTO 00000KT 10SM CLR 02/M13 A3055 RMK AO2 T00151131
KGNB 102130Z AUTO 00000KT 10SM CLR 01/M13 A3055 RMK AO2 T00121129
KGNB 102110Z AUTO 00000KT 10SM CLR 01/M13 A3056 RMK AO2 T00051126
KGNB 102050Z AUTO 00000KT 10SM CLR 00/M12 A3056 RMK AO2 T00001125
KGNB 102030Z AUTO 00000KT 10SM CLR 00/M12 A3057 RMK AO2 T10011122
KGNB 102010Z AUTO 00000KT 10SM CLR M01/M12 A3058 RMK AO2 T10131123
KGNB 101950Z AUTO 00000KT 10SM CLR M02/M12 A3059 RMK AO2 T10211125
KGNB 101930Z AUTO 00000KT 10SM CLR M03/M12 A3060 RMK AO2 T10341123
KGNB 101910Z AUTO 00000KT 10SM CLR M04/M11 A3061 RMK AO2 T10391115
KGNB 101850Z AUTO 00000KT 10SM CLR M05/M11 A3062 RMK AO2 T10511114
KGNB 101830Z AUTO 00000KT 10SM CLR M06/M12 A3063 RMK AO2 T10621116
KGNB 101810Z AUTO 00000KT 10SM CLR M08/M10 A3063 RMK AO2 T10781102
KGNB 101750Z AUTO 00000KT 10SM CLR M09/M10 A3064 RMK AO2 T10871101 11087 21176
KGNB 101730Z AUTO 00000KT 10SM CLR M10/M11 A3064 RMK AO2 T11001114
KGNB 101710Z AUTO 00000KT 10SM CLR M11/M12 A3064 RMK AO2 T11071120
KGNB 101650Z AUTO 00000KT 1 3/4SM -SN BKN002 M11/M13 A3065 RMK AO2 VIS 1/2V5 T11151130
KGNB 101630Z AUTO 00000KT 3/4SM -SN BKN002 M12/M14 A3066 RMK AO2 T11231138
KGNB 101610Z AUTO 00000KT 10SM -SN SCT001 M14/M15 A3064 RMK AO2 T11371154
KGNB 101550Z AUTO 00000KT 1 3/4SM -SN BKN001 M14/M16 A3064 RMK AO2 T11401156
KGNB 101530Z AUTO 00000KT 10SM SCT001 M15/M17 A3065 RMK AO2 T11551173
KGNB 101510Z AUTO 00000KT 1 1/4SM BR BKN001 M16/M18 A3064 RMK AO2 VIS 3/4V4 T11621181
KGNB 101450Z AUTO 00000KT M1/4SM FZFG OVC001 M17/M19 A3064 RMK AO2 T11671186
KGNB 101430Z AUTO 00000KT 3SM BR SCT001 M16/M18 A3064 RMK AO2 T11631182
KGNB 101410Z AUTO 00000KT 10SM CLR M16/M18 A3064 RMK AO2 T11621181
KGNB 101350Z AUTO 00000KT 10SM SCT001 M17/M19 A3064 RMK AO2 T11721192
KGNB 101330Z AUTO 00000KT 4SM BR BKN001 M16/M18 A3064 RMK AO2 T11641184
KGNB 101310Z AUTO 00000KT 1/4SM FZFG OVC001 M15/M17 A3063 RMK AO2 T11501166
KGNB 101250Z AUTO 00000KT 1/4SM FZFG OVC001 M16/M17 A3062 RMK AO2 T11561171
KGNB 101230Z AUTO 00000KT 1/2SM FZFG OVC001 M15/M17 A3063 RMK AO2 T11541167
KGNB 101210Z AUTO 00000KT 10SM SCT001 M15/M16 A3062 RMK AO2 T11471159
KGNB 101150Z AUTO 00000KT 10SM CLR M16/M18 A3062 RMK AO2 T11561176 11102 21159
KGNB 101130Z AUTO 00000KT 10SM CLR M16/M18 A3062 RMK AO2 T11581179
KGNB 101110Z AUTO 00000KT 10SM CLR M15/M17 A3062 RMK AO2 T11541172
KGNB 101050Z AUTO 12003KT 10SM CLR M14/M16 A3062 RMK AO2 T11451165
KGNB 101030Z AUTO 00000KT 10SM CLR M14/M17 A3062 RMK AO2 T11451167
KGNB 101010Z AUTO 00000KT 10SM CLR M14/M16 A3062 RMK AO2 T11421162
KGNB 100950Z AUTO 08003KT 10SM CLR M14/M16 A3062 RMK AO2 T11391162
KGNB 100930Z AUTO 00000KT 10SM CLR M13/M15 A3062 RMK AO2 T11281149
KGNB 100910Z AUTO 06004KT 10SM CLR M14/M16 A3062 RMK AO2 T11421163
KGNB 100850Z AUTO 00000KT 10SM CLR M14/M16 A3062 RMK AO2 T11421161
KGNB 100830Z AUTO 00000KT 10SM CLR M12/M15 A3061 RMK AO2 T11241146
KGNB 100810Z AUTO 00000KT 10SM CLR M13/M16 A3062 RMK AO2 T11341159
KGNB 100755Z AUTO 00000KT 10SM CLR M12/M14 A3062 RMK AO2 T11211143
KGNB 100735Z AUTO 00000KT 10SM CLR M13/M15 A3062 RMK AO2 T11261151
KGNB 100710Z AUTO 00000KT 10SM CLR M12/M14 A3062 RMK AO2 T11181143
KGNB 100650Z AUTO 10003KT 10SM CLR M12/M15 A3062 RMK AO2 T11221147 400011172
KGNB 100630Z AUTO 00000KT 10SM CLR M11/M14 A3062 RMK AO2 T11131141
KGNB 100610Z AUTO 00000KT 10SM CLR M10/M13 A3062 RMK AO2 T11031134
KGNB 100550Z AUTO 00000KT 10SM CLR M10/M13 A3061 RMK AO2 T11011132 11036 21113
KGNB 100530Z AUTO 09003KT 10SM CLR M10/M13 A3061 RMK AO2 T11011130
KGNB 100510Z AUTO 00000KT 10SM CLR M11/M14 A3061 RMK AO2 T11111138
KGNB 100450Z AUTO 00000KT 10SM CLR M11/M13 A3060 RMK AO2 T11101135
KGNB 100430Z AUTO 13004KT 10SM CLR M10/M13 A3060 RMK AO2 T11021132
KGNB 100410Z AUTO 00000KT 10SM CLR M10/M13 A3059 RMK AO2 T10981129
KGNB 100350Z AUTO 09004KT 10SM CLR M09/M12 A3059 RMK AO2 T10951125
KGNB 100330Z AUTO 00000KT 10SM CLR M10/M13 A3058 RMK AO2 T10971129
KGNB 100310Z AUTO 00000KT 10SM CLR M10/M13 A3058 RMK AO2 T11001130
KGNB 100250Z AUTO 15003KT 10SM CLR M10/M13 A3057 RMK AO2 T10971129
KGNB 100230Z AUTO 00000KT 10SM CLR M08/M12 A3057 RMK AO2 T10781117
KGNB 100210Z AUTO 00000KT 10SM CLR M08/M12 A3056 RMK AO2 T10781117
KGNB 100150Z AUTO 00000KT 10SM CLR M07/M11 A3055 RMK AO2 T10701109
KGNB 100130Z AUTO 32004KT 10SM CLR M06/M11 A3055 RMK AO2 T10591110
KGNB 100110Z AUTO 00000KT 10SM CLR M05/M11 A3054 RMK AO2 T10551110
KGNB 100050Z AUTO 00000KT 10SM CLR M06/M11 A3054 RMK AO2 T10571111
KGNB 100030Z AUTO 00000KT 10SM CLR M05/M11 A3054 RMK AO2 T10551111
KGNB 092350Z AUTO 20004KT 10SM CLR M03/M10 A3053 RMK AO2 T10301103 10001 21105
KGNB 092330Z AUTO 23003KT 10SM CLR 00/M10 A3052 RMK AO2 T10051102
KGNB 092310Z AUTO 00000KT 10SM CLR 00/M11 A3052 RMK AO2 T00001109
KGNB 092250Z AUTO 00000KT 10SM CLR 00/M11 A3052 RMK AO2 T00001108
KGNB 092230Z AUTO 00000KT 10SM CLR 00/M11 A3052 RMK AO2 T00001109
KGNB 092210Z AUTO 00000KT 10SM CLR 00/M10 A3052 RMK AO2 T00001104
KGNB 092150Z AUTO 00000KT 10SM CLR 00/M11 A3051 RMK AO2 T10011106
KGNB 092130Z AUTO 00000KT 10SM CLR M01/M11 A3051 RMK AO2 T10061107
KGNB 092110Z AUTO 00000KT 10SM CLR M01/M10 A3052 RMK AO2 T10091104
KGNB 092050Z AUTO 00000KT 10SM CLR M01/M10 A3052 RMK AO2 T10151101
KGNB 092030Z AUTO 00000KT 10SM CLR M02/M10 A3053 RMK AO2 T10211098
KGNB 092010Z AUTO 00000KT 10SM CLR M03/M10 A3053 RMK AO2 T10321100
KGNB 091950Z AUTO 00000KT 10SM CLR M04/M10 A3054 RMK AO2 T10371100
KGNB 091930Z AUTO 33003KT 10SM CLR M06/M08 A3055 RMK AO2 T10561083
KGNB 091910Z AUTO 00000KT 10SM CLR M07/M08 A3056 RMK AO2 T10711083
KGNB 091850Z AUTO 00000KT 10SM CLR M08/M09 A3057 RMK AO2 T10801092
KGNB 091830Z AUTO 00000KT 10SM CLR M09/M10 A3058 RMK AO2 T10901101
KGNB 091810Z AUTO 00000KT 10SM CLR M10/M11 A3059 RMK AO2 T10991112
KGNB 091750Z AUTO 00000KT 7SM -SN CLR M11/M12 A3060 RMK AO2 T11071121 11107 21172
KGNB 091730Z AUTO 00000KT 3/4SM -SN BKN003 M11/M13 A3061 RMK AO2 T11121127
KGNB 091710Z AUTO 00000KT 1/2SM SN OVC003 M12/M13 A3061 RMK AO2 T11201135
KGNB 091650Z AUTO 00000KT 3/4SM -SN OVC003 M12/M13 A3061 RMK AO2 T11201135
KGNB 091630Z AUTO 00000KT 1/2SM FZFG OVC003 M13/M15 A3060 RMK AO2 T11341149
KGNB 091610Z AUTO 00000KT M1/4SM -SN OVC003 M14/M16 A3059 RMK AO2 T11401156